createdAt,value
2023-03-31T00:01:42.778Z,1.60
2023-03-31T00:04:14.877Z,1.90
2023-03-31T00:06:46.280Z,1.70
2023-03-31T00:09:19.077Z,1.80
2023-03-31T00:11:51.241Z,1.90
2023-03-31T00:14:23.614Z,2.10
2023-03-31T00:16:54.886Z,1.70
2023-03-31T00:19:29.210Z,1.60
2023-03-31T00:22:02.273Z,1.60
2023-03-31T00:24:33.793Z,1.70
2023-03-31T00:27:06.458Z,1.50
2023-03-31T00:29:41.331Z,1.40
2023-03-31T00:32:14.855Z,1.50
2023-03-31T00:34:46.688Z,1.50
2023-03-31T00:37:17.700Z,1.70
2023-03-31T00:39:51.957Z,1.60
2023-03-31T00:42:24.043Z,1.70
2023-03-31T00:45:28.302Z,1.60
2023-03-31T00:48:06.188Z,1.80
2023-03-31T00:50:49.476Z,1.60
2023-03-31T00:53:24.709Z,1.60
2023-03-31T00:56:00.505Z,1.40
2023-03-31T00:58:33.461Z,1.60
2023-03-31T01:01:06.088Z,1.70
2023-03-31T01:03:38.790Z,1.60
2023-03-31T01:06:11.490Z,1.60
2023-03-31T01:08:43.446Z,1.40
2023-03-31T01:11:17.643Z,1.90
2023-03-31T01:13:52.939Z,1.60
2023-03-31T01:16:24.586Z,1.60
2023-03-31T01:18:57.730Z,1.60
2023-03-31T01:21:57.141Z,1.50
2023-03-31T01:25:01.861Z,1.60
2023-03-31T01:27:54.249Z,1.70
2023-03-31T01:31:04.889Z,1.60
2023-03-31T01:34:00.988Z,1.60
2023-03-31T01:36:58.756Z,1.50
2023-03-31T01:40:02.186Z,1.80
2023-03-31T01:42:38.599Z,1.70
2023-03-31T01:45:21.772Z,1.80
2023-03-31T01:47:59.269Z,1.40
2023-03-31T01:50:36.808Z,1.90
2023-03-31T01:53:17.006Z,1.50
2023-03-31T01:55:55.189Z,1.60
2023-03-31T01:58:32.426Z,1.90
2023-03-31T02:01:09.775Z,1.50
2023-03-31T02:03:47.114Z,1.50
2023-03-31T02:06:24.692Z,1.60
2023-03-31T02:08:59.634Z,1.80
2023-03-31T02:11:33.136Z,1.50
2023-03-31T02:14:09.596Z,1.60
2023-03-31T02:16:47.478Z,1.60
2023-03-31T02:19:23.452Z,1.50
2023-03-31T02:21:57.027Z,1.70
2023-03-31T02:24:30.644Z,1.20
2023-03-31T02:27:08.398Z,1.60
2023-03-31T02:29:39.999Z,1.50
2023-03-31T02:32:18.770Z,1.60
2023-03-31T02:34:50.339Z,1.60
2023-03-31T02:37:21.868Z,1.40
2023-03-31T02:39:55.307Z,1.30
2023-03-31T02:42:26.924Z,1.40
2023-03-31T02:45:05.388Z,1.40
2023-03-31T02:47:37.191Z,1.40
2023-03-31T02:50:11.058Z,1.70
2023-03-31T02:52:58.679Z,1.40
2023-03-31T02:55:49.094Z,1.40
2023-03-31T02:58:56.075Z,1.40
2023-03-31T03:01:41.754Z,1.50
2023-03-31T03:04:29.872Z,1.50
2023-03-31T03:07:10.434Z,1.40
2023-03-31T03:09:55.122Z,1.40
2023-03-31T03:12:34.188Z,1.50
2023-03-31T03:15:12.224Z,1.40
2023-03-31T03:17:45.890Z,1.50
2023-03-31T03:20:21.767Z,1.40
2023-03-31T03:22:54.038Z,1.40
2023-03-31T03:25:25.794Z,1.60
2023-03-31T03:27:57.551Z,1.40
2023-03-31T03:30:28.434Z,1.40
2023-03-31T03:33:00.190Z,1.50
2023-03-31T03:35:31.840Z,1.40
2023-03-31T03:38:03.425Z,1.50
2023-03-31T03:40:34.688Z,1.50
2023-03-31T03:43:08.105Z,1.60
2023-03-31T03:45:39.827Z,1.50
2023-03-31T03:48:11.304Z,1.30
2023-03-31T03:50:42.513Z,1.50
2023-03-31T03:53:14.677Z,1.70
2023-03-31T03:55:49.030Z,1.60
2023-03-31T03:58:20.629Z,1.80
2023-03-31T04:00:51.807Z,1.60
2023-03-31T04:03:23.863Z,1.40
2023-03-31T04:05:54.908Z,1.60
2023-03-31T04:08:26.662Z,1.40
2023-03-31T04:10:58.461Z,1.40
2023-03-31T04:13:29.952Z,1.40
2023-03-31T04:16:01.733Z,1.50
2023-03-31T04:18:32.781Z,1.50
2023-03-31T04:21:05.169Z,1.40
2023-03-31T04:23:38.569Z,1.60
2023-03-31T04:26:10.062Z,1.60
2023-03-31T04:28:42.984Z,1.50
2023-03-31T04:31:16.674Z,1.50
2023-03-31T04:33:48.208Z,1.50
2023-03-31T04:36:19.425Z,1.60
2023-03-31T04:38:55.081Z,1.50
2023-03-31T04:41:28.528Z,1.50
2023-03-31T04:43:59.988Z,1.50
2023-03-31T04:46:31.056Z,1.50
2023-03-31T04:49:03.079Z,1.60
2023-03-31T04:51:34.225Z,1.40
2023-03-31T04:54:05.347Z,1.50
2023-03-31T04:56:36.474Z,1.40
2023-03-31T04:59:08.861Z,1.80
2023-03-31T05:01:45.891Z,1.70
2023-03-31T05:04:16.891Z,1.60
2023-03-31T05:06:48.163Z,2.00
2023-03-31T05:09:20.850Z,1.50
2023-03-31T05:11:52.571Z,1.40
2023-03-31T05:14:23.734Z,1.40
2023-03-31T05:16:58.253Z,1.60
2023-03-31T05:19:29.642Z,1.50
2023-03-31T05:22:00.957Z,1.50
2023-03-31T05:24:32.278Z,1.60
2023-03-31T05:27:03.553Z,1.90
2023-03-31T05:29:34.792Z,1.70
2023-03-31T05:32:06.682Z,1.70
2023-03-31T05:34:38.219Z,1.80
2023-03-31T05:37:09.466Z,1.70
2023-03-31T05:39:40.428Z,1.60
2023-03-31T05:42:12.213Z,1.60
2023-03-31T05:44:43.639Z,1.90
2023-03-31T05:47:15.433Z,1.60
2023-03-31T05:49:47.014Z,1.80
2023-03-31T05:52:18.304Z,1.80
2023-03-31T05:54:49.626Z,2.20
2023-03-31T05:57:21.425Z,2.10
2023-03-31T05:59:53.304Z,2.00
2023-03-31T06:02:24.629Z,2.20
2023-03-31T06:04:56.246Z,1.90
2023-03-31T06:07:28.188Z,1.60
2023-03-31T06:09:59.368Z,2.00
2023-03-31T06:12:30.914Z,2.20
2023-03-31T06:15:01.935Z,2.20
2023-03-31T06:17:33.444Z,1.90
2023-03-31T06:20:15.949Z,1.90
2023-03-31T06:22:56.125Z,2.00
2023-03-31T06:25:29.263Z,2.10
2023-03-31T06:28:04.056Z,2.10
2023-03-31T06:30:35.931Z,2.10
2023-03-31T06:33:08.090Z,2.30
2023-03-31T06:35:42.367Z,2.10
2023-03-31T06:38:13.710Z,2.40
2023-03-31T06:40:45.060Z,2.30
2023-03-31T06:43:16.358Z,2.20
2023-03-31T06:45:47.923Z,2.00
2023-03-31T06:48:19.254Z,2.00
2023-03-31T06:50:50.501Z,2.50
2023-03-31T06:53:22.446Z,2.10
2023-03-31T06:55:53.514Z,2.30
2023-03-31T06:58:25.062Z,2.20
2023-03-31T07:00:56.447Z,2.10
2023-03-31T07:03:29.734Z,2.10
2023-03-31T07:06:01.427Z,2.10
2023-03-31T07:08:32.979Z,2.10
2023-03-31T07:11:05.001Z,1.90
2023-03-31T07:13:36.984Z,2.10
2023-03-31T07:16:10.131Z,1.80
2023-03-31T07:18:42.326Z,1.90
2023-03-31T07:21:14.176Z,2.30
2023-03-31T07:23:46.505Z,2.50
2023-03-31T07:26:17.962Z,3.20
2023-03-31T07:28:49.295Z,3.80
2023-03-31T07:31:20.963Z,3.80
2023-03-31T07:33:52.739Z,2.90
2023-03-31T07:36:24.225Z,2.10
2023-03-31T07:38:55.566Z,1.90
2023-03-31T07:41:27.096Z,1.90
2023-03-31T07:43:58.390Z,2.00
2023-03-31T07:46:30.535Z,1.70
2023-03-31T07:49:03.386Z,1.70
2023-03-31T07:51:34.808Z,2.00
2023-03-31T07:54:06.221Z,2.20
2023-03-31T07:56:37.228Z,2.20
2023-03-31T07:59:08.308Z,2.70
2023-03-31T08:01:39.933Z,2.80
2023-03-31T08:04:13.530Z,2.60
2023-03-31T08:06:44.761Z,2.60
2023-03-31T08:09:16.712Z,2.80
2023-03-31T08:11:48.225Z,2.50
2023-03-31T08:14:30.295Z,2.60
2023-03-31T08:17:02.105Z,2.70
2023-03-31T08:19:33.255Z,2.30
2023-03-31T08:22:04.696Z,2.40
2023-03-31T08:24:35.856Z,2.50
2023-03-31T08:27:11.994Z,2.10
2023-03-31T08:29:43.448Z,2.00
2023-03-31T08:32:14.879Z,1.90
2023-03-31T08:34:46.414Z,2.20
2023-03-31T08:37:17.498Z,1.80
2023-03-31T08:39:48.626Z,1.90
2023-03-31T08:42:27.602Z,1.80
2023-03-31T08:45:04.982Z,1.70
2023-03-31T08:47:38.219Z,2.10
2023-03-31T08:50:14.410Z,1.90
2023-03-31T08:52:50.503Z,2.10
2023-03-31T08:55:26.960Z,2.30
2023-03-31T08:58:03.088Z,2.40
2023-03-31T09:00:47.860Z,2.20
2023-03-31T09:03:27.287Z,2.50
2023-03-31T09:06:04.287Z,2.60
2023-03-31T09:08:42.481Z,2.50
2023-03-31T09:11:23.126Z,2.40
2023-03-31T09:14:26.929Z,2.40
2023-03-31T09:17:14.072Z,2.00
2023-03-31T09:19:51.272Z,1.90
2023-03-31T09:22:27.354Z,2.50
2023-03-31T09:25:05.232Z,2.10
2023-03-31T09:27:38.251Z,2.50
2023-03-31T09:30:16.711Z,3.00
2023-03-31T09:32:49.564Z,2.70
2023-03-31T09:35:23.305Z,3.10
2023-03-31T09:37:55.478Z,2.90
2023-03-31T09:40:29.189Z,2.50
2023-03-31T09:43:04.941Z,2.20
2023-03-31T09:45:37.400Z,2.00
2023-03-31T09:48:15.581Z,2.20
2023-03-31T09:50:50.467Z,2.10
2023-03-31T09:53:30.505Z,2.50
2023-03-31T09:56:05.430Z,2.00
2023-03-31T09:58:43.894Z,2.20
2023-03-31T10:01:16.669Z,2.20
2023-03-31T10:03:54.017Z,2.80
2023-03-31T10:06:26.663Z,2.50
2023-03-31T10:09:01.596Z,2.30
2023-03-31T10:11:33.485Z,2.20
2023-03-31T10:14:06.500Z,2.30
2023-03-31T10:16:45.398Z,2.40
2023-03-31T10:19:22.866Z,2.40
2023-03-31T10:22:00.022Z,2.40
2023-03-31T10:24:40.185Z,2.50
2023-03-31T10:27:23.692Z,2.40
2023-03-31T10:29:57.525Z,2.90
2023-03-31T10:32:31.059Z,2.50
2023-03-31T10:35:07.878Z,2.50
2023-03-31T10:37:40.149Z,2.70
2023-03-31T10:40:21.077Z,2.70
2023-03-31T10:43:03.102Z,2.80
2023-03-31T10:45:43.284Z,2.80
2023-03-31T10:48:25.443Z,3.40
2023-03-31T10:51:00.260Z,3.40
2023-03-31T10:53:31.610Z,2.90
2023-03-31T10:56:14.736Z,3.20
2023-03-31T10:59:05.735Z,3.10
2023-03-31T11:01:52.222Z,2.90
2023-03-31T11:04:47.728Z,3.20
2023-03-31T11:07:32.594Z,3.30
2023-03-31T11:10:22.244Z,3.00
2023-03-31T11:12:59.860Z,2.60
2023-03-31T11:15:37.843Z,2.30
2023-03-31T11:18:26.865Z,2.70
2023-03-31T11:21:07.769Z,2.60
2023-03-31T11:23:52.341Z,2.50
2023-03-31T11:26:31.120Z,2.40
2023-03-31T11:29:13.018Z,2.50
2023-03-31T11:31:52.752Z,2.80
2023-03-31T11:34:55.475Z,2.80
2023-03-31T11:37:45.983Z,2.80
2023-03-31T11:40:45.862Z,2.60
2023-03-31T11:43:24.759Z,2.40
2023-03-31T11:46:02.675Z,2.40
2023-03-31T11:48:44.980Z,2.30
2023-03-31T11:51:21.128Z,2.40
2023-03-31T11:53:55.727Z,2.80
2023-03-31T11:56:32.609Z,2.20
2023-03-31T11:59:05.870Z,2.10
2023-03-31T12:01:44.274Z,2.80
2023-03-31T12:04:27.317Z,2.40
2023-03-31T12:07:04.177Z,2.00
2023-03-31T12:09:39.709Z,2.30
2023-03-31T12:12:17.088Z,2.60
2023-03-31T12:14:54.535Z,2.50
2023-03-31T12:17:29.642Z,2.10
2023-03-31T12:20:09.393Z,2.70
2023-03-31T12:22:44.878Z,2.30
2023-03-31T12:25:23.265Z,2.50
2023-03-31T12:27:55.174Z,3.20
2023-03-31T12:30:34.652Z,2.60
2023-03-31T12:33:09.163Z,2.50
2023-03-31T12:35:52.809Z,2.40
2023-03-31T12:38:36.486Z,2.50
2023-03-31T12:41:16.323Z,2.70
2023-03-31T12:44:04.894Z,2.80
2023-03-31T12:46:54.241Z,2.50
2023-03-31T12:49:43.116Z,2.20
2023-03-31T12:52:19.614Z,2.50
2023-03-31T12:55:23.428Z,2.60
2023-03-31T12:57:55.073Z,3.00
2023-03-31T13:00:30.188Z,2.80
2023-03-31T13:03:28.825Z,3.60
2023-03-31T13:05:59.994Z,2.30
2023-03-31T13:08:54.746Z,2.60
2023-03-31T13:11:40.021Z,2.70
2023-03-31T13:14:20.891Z,3.30
2023-03-31T13:16:55.572Z,2.90
2023-03-31T13:19:34.546Z,3.00
2023-03-31T13:22:07.409Z,2.70
2023-03-31T13:24:38.663Z,2.60
2023-03-31T13:27:34.486Z,3.70
2023-03-31T13:30:07.808Z,2.70
2023-03-31T13:32:40.535Z,3.60
2023-03-31T13:35:20.008Z,3.10
2023-03-31T13:38:11.022Z,3.30
2023-03-31T13:41:02.770Z,2.90
2023-03-31T13:44:10.087Z,3.10
2023-03-31T13:47:02.620Z,3.20
2023-03-31T13:49:55.458Z,3.50
2023-03-31T13:52:41.001Z,3.00
2023-03-31T13:55:45.410Z,3.20
2023-03-31T13:58:44.235Z,3.50
2023-03-31T14:01:42.232Z,3.40
2023-03-31T14:04:30.065Z,3.50
2023-03-31T14:07:03.771Z,3.40
2023-03-31T14:09:36.922Z,3.70
2023-03-31T14:15:19.108Z,3.40
2023-03-31T14:17:51.068Z,3.30
2023-03-31T14:20:43.842Z,3.50
2023-03-31T14:23:26.382Z,3.70
2023-03-31T14:26:06.268Z,3.50
2023-03-31T14:28:54.661Z,3.20
2023-03-31T14:31:35.686Z,2.80
2023-03-31T14:34:37.113Z,2.90
2023-03-31T14:37:11.850Z,3.40
2023-03-31T14:39:45.947Z,3.10
2023-03-31T14:42:19.756Z,3.30
2023-03-31T14:44:56.794Z,3.30
2023-03-31T14:47:30.500Z,3.00
2023-03-31T14:50:09.213Z,3.60
2023-03-31T14:52:41.060Z,2.80
2023-03-31T14:55:20.066Z,3.30
2023-03-31T14:57:54.921Z,2.80
2023-03-31T15:00:30.319Z,2.90
2023-03-31T15:03:04.905Z,2.60
2023-03-31T15:05:39.533Z,3.10
2023-03-31T15:08:18.106Z,3.20
2023-03-31T15:10:58.936Z,3.10
2023-03-31T15:13:40.950Z,3.40
2023-03-31T15:16:36.406Z,3.60
2023-03-31T15:19:16.604Z,4.00
2023-03-31T15:21:55.182Z,3.10
2023-03-31T15:24:27.654Z,4.50
2023-03-31T15:27:04.282Z,3.80
2023-03-31T15:29:40.322Z,3.50
2023-03-31T15:32:17.722Z,3.60
2023-03-31T15:34:49.703Z,3.50
2023-03-31T15:37:27.976Z,3.70
2023-03-31T15:40:05.239Z,4.10
2023-03-31T15:42:39.365Z,3.90
2023-03-31T15:45:50.051Z,3.90
2023-03-31T15:48:33.625Z,4.90
2023-03-31T15:51:18.513Z,5.10
2023-03-31T15:53:53.462Z,5.60
2023-03-31T15:56:43.949Z,5.50
2023-03-31T15:59:34.322Z,4.20
2023-03-31T16:02:16.320Z,4.30
2023-03-31T16:04:52.094Z,4.00
2023-03-31T16:07:27.513Z,4.40
2023-03-31T16:10:02.161Z,4.20
2023-03-31T16:12:37.284Z,4.40
2023-03-31T16:15:14.341Z,4.10
2023-03-31T16:17:54.133Z,3.80
2023-03-31T16:20:30.365Z,4.30
2023-03-31T16:23:03.890Z,5.10
2023-03-31T16:25:40.456Z,5.40
2023-03-31T16:28:18.420Z,5.40
2023-03-31T16:30:50.499Z,6.90
2023-03-31T16:33:24.868Z,6.70
2023-03-31T16:35:58.898Z,6.60
2023-03-31T16:38:31.607Z,6.10
2023-03-31T16:41:03.167Z,5.70
2023-03-31T16:43:35.947Z,4.90
2023-03-31T16:46:08.082Z,4.50
2023-03-31T16:48:39.708Z,4.60
2023-03-31T16:51:11.903Z,3.80
2023-03-31T16:53:57.545Z,3.50
2023-03-31T16:56:30.928Z,4.10
2023-03-31T16:59:03.855Z,3.50
2023-03-31T17:01:36.408Z,3.50
2023-03-31T17:04:08.546Z,3.50
2023-03-31T17:06:40.245Z,3.80
2023-03-31T17:09:12.361Z,3.30
2023-03-31T17:11:43.682Z,3.80
2023-03-31T17:14:15.182Z,3.80
2023-03-31T17:16:48.471Z,3.70
2023-03-31T17:19:22.762Z,3.80
2023-03-31T17:21:55.263Z,3.50
2023-03-31T17:24:27.599Z,3.50
2023-03-31T17:26:59.303Z,4.00
2023-03-31T17:29:30.871Z,3.40
2023-03-31T17:32:02.472Z,4.20
2023-03-31T17:34:34.667Z,4.90
2023-03-31T17:37:07.065Z,5.30
2023-03-31T17:39:38.514Z,5.30
2023-03-31T17:42:10.316Z,5.60
2023-03-31T17:44:42.521Z,6.10
2023-03-31T17:47:13.994Z,5.30
2023-03-31T17:49:45.128Z,8.30
2023-03-31T17:52:17.093Z,7.50
2023-03-31T17:54:50.674Z,5.90
2023-03-31T17:57:22.729Z,5.30
2023-03-31T17:59:54.485Z,5.10
2023-03-31T18:02:26.131Z,4.70
2023-03-31T18:04:58.398Z,4.20
2023-03-31T18:07:30.216Z,4.30
2023-03-31T18:10:05.446Z,4.10
2023-03-31T18:12:37.960Z,6.10
2023-03-31T18:15:11.818Z,4.70
2023-03-31T18:17:44.696Z,5.10
2023-03-31T18:20:16.898Z,5.20
2023-03-31T18:22:48.249Z,4.40
2023-03-31T18:25:19.431Z,4.20
2023-03-31T18:27:50.936Z,4.40
2023-03-31T18:30:22.816Z,4.00
2023-03-31T18:32:54.829Z,3.70
2023-03-31T18:35:27.483Z,3.70
2023-03-31T18:37:59.088Z,3.80
2023-03-31T18:40:30.864Z,4.90
2023-03-31T18:43:02.819Z,4.00
2023-03-31T18:45:35.027Z,4.50
2023-03-31T18:48:06.762Z,4.00
2023-03-31T18:50:38.313Z,4.30
2023-03-31T18:53:09.817Z,4.20
2023-03-31T18:55:41.160Z,3.80
2023-03-31T18:58:13.618Z,4.80
2023-03-31T19:00:45.473Z,4.60
2023-03-31T19:03:17.621Z,4.10
2023-03-31T19:05:49.774Z,4.20
2023-03-31T19:08:22.036Z,4.50
2023-03-31T19:10:53.871Z,3.60
2023-03-31T19:13:25.005Z,4.00
2023-03-31T19:15:56.440Z,3.80
2023-03-31T19:18:28.544Z,4.80
2023-03-31T19:21:00.521Z,4.90
2023-03-31T19:23:33.118Z,4.10
2023-03-31T19:26:05.194Z,4.10
2023-03-31T19:28:37.379Z,4.00
2023-03-31T19:31:09.073Z,4.10
2023-03-31T19:33:41.003Z,4.40
2023-03-31T19:36:13.524Z,3.80
2023-03-31T19:38:45.341Z,4.40
2023-03-31T19:41:18.449Z,4.00
2023-03-31T19:43:50.414Z,4.10
2023-03-31T19:46:21.486Z,4.30
2023-03-31T19:48:52.916Z,4.40
2023-03-31T19:51:24.614Z,6.00
2023-03-31T19:53:57.077Z,5.20
2023-03-31T19:56:28.766Z,4.70
2023-03-31T19:59:00.543Z,4.40
2023-03-31T20:01:31.982Z,4.00
2023-03-31T20:04:03.966Z,4.50
2023-03-31T20:06:37.509Z,3.90
2023-03-31T20:09:09.261Z,3.50
2023-03-31T20:11:43.635Z,3.80
2023-03-31T20:14:15.798Z,3.50
2023-03-31T20:16:48.055Z,3.20
2023-03-31T20:19:20.291Z,4.10
2023-03-31T20:21:56.091Z,4.20
2023-03-31T20:24:29.567Z,4.50
2023-03-31T20:27:01.689Z,3.40
2023-03-31T20:29:33.152Z,4.60
2023-03-31T20:32:05.922Z,3.90
2023-03-31T20:34:37.380Z,4.30
2023-03-31T20:37:09.102Z,3.70
2023-03-31T20:39:41.286Z,3.60
2023-03-31T20:42:13.352Z,3.70
2023-03-31T20:44:44.965Z,3.60
2023-03-31T20:47:16.192Z,4.30
2023-03-31T20:49:49.453Z,4.00
2023-03-31T20:52:20.972Z,4.30
2023-03-31T20:54:52.390Z,4.30
2023-03-31T20:57:24.527Z,3.90
2023-03-31T20:59:57.404Z,4.10
2023-03-31T21:02:29.527Z,4.00
2023-03-31T21:05:01.985Z,4.00
2023-03-31T21:07:34.299Z,4.20
2023-03-31T21:10:06.250Z,4.30
2023-03-31T21:12:38.113Z,3.80
2023-03-31T21:15:12.582Z,4.10
2023-03-31T21:17:44.082Z,4.50
2023-03-31T21:20:15.960Z,4.80
2023-03-31T21:22:47.404Z,4.20
2023-03-31T21:25:19.085Z,4.60
2023-03-31T21:27:51.081Z,4.50
2023-03-31T21:30:28.580Z,5.40
2023-03-31T21:33:00.303Z,4.90
2023-03-31T21:35:32.516Z,4.40
2023-03-31T21:38:05.239Z,4.60
2023-03-31T21:40:37.845Z,5.10
2023-03-31T21:43:10.197Z,5.10
2023-03-31T21:45:43.119Z,5.10
2023-03-31T21:48:15.410Z,4.80
2023-03-31T21:50:48.380Z,4.90
2023-03-31T21:53:20.192Z,4.80
2023-03-31T21:56:00.735Z,4.80
2023-03-31T21:58:36.147Z,4.80
2023-03-31T22:01:08.517Z,4.80
2023-03-31T22:03:42.518Z,4.70
2023-03-31T22:06:13.812Z,5.10
2023-03-31T22:08:45.137Z,4.30
2023-03-31T22:11:17.262Z,4.80
2023-03-31T22:13:49.467Z,4.70
2023-03-31T22:16:23.368Z,4.70
2023-03-31T22:18:55.605Z,4.60
2023-03-31T22:21:45.373Z,4.70
2023-03-31T22:24:17.274Z,4.80
2023-03-31T22:26:48.937Z,4.80
2023-03-31T22:29:20.383Z,4.50
2023-03-31T22:31:52.928Z,4.30
2023-03-31T22:34:24.796Z,4.40
2023-03-31T22:36:57.664Z,4.60
2023-03-31T22:39:29.837Z,4.90
2023-03-31T22:42:01.015Z,4.10
2023-03-31T22:44:33.330Z,4.20
2023-03-31T22:47:04.992Z,4.40
2023-03-31T22:49:36.716Z,4.40
2023-03-31T22:52:09.364Z,4.00
2023-03-31T22:54:41.383Z,3.90
2023-03-31T22:57:13.608Z,3.90
2023-03-31T22:59:45.976Z,4.30
2023-03-31T23:02:19.395Z,4.50
2023-03-31T23:04:50.918Z,4.40
2023-03-31T23:07:23.333Z,4.30
2023-03-31T23:09:55.479Z,4.30
2023-03-31T23:12:29.739Z,4.30
2023-03-31T23:15:01.732Z,3.70
2023-03-31T23:17:34.189Z,4.50
2023-03-31T23:20:07.789Z,4.40
2023-03-31T23:22:39.526Z,4.10
2023-03-31T23:25:11.900Z,4.50
2023-03-31T23:27:43.865Z,3.70
2023-03-31T23:30:17.660Z,4.10
2023-03-31T23:32:49.118Z,4.00
2023-03-31T23:35:20.766Z,4.00
2023-03-31T23:37:52.292Z,3.40
2023-03-31T23:40:23.761Z,4.10
2023-03-31T23:42:55.415Z,3.70
2023-03-31T23:45:26.765Z,3.90
2023-03-31T23:47:58.900Z,3.90
2023-03-31T23:50:30.280Z,3.40
2023-03-31T23:53:02.370Z,3.60
2023-03-31T23:55:34.152Z,3.90
2023-03-31T23:58:09.248Z,3.80
